x

Grays Reef - 40 Nm Southeast Of Savannah, Ga (41008) Wave Buoy

9:50am - Sat 13th Feb 2016 All times are EST. -5 hours from GMT.

  • Sig Wave height 3.3ft
  • Swell Direction
  • Peak Period 5s
  • Average Period 4s
  • Wind
    18mph, 20mph gusts
  • Sea Temp 53°f
  • Air Temp 45°f
  • Sea Pressure 1025.4mb
  • Grays Reef - 40 Nm Southeast Of Savannah, Ga
  • Grays Reef - 40 Nm Southeast Of Savannah, Ga

More Historic Weather Station data

Upgrade to MSW Pro to gain access to the past 30 days of data for over 8000 Wavebouys and Weather Stations around the globe.

Join Pro

Comparision Forecast

View Surf forecast
   
Sat 02/13 9:50am 3.5ft 5s 4s 18 20 mph 1025.4mb 53f 45f
8:50am 3.5ft 4s 4s 22 27 mph 1024.7mb 52f 47f
7:50am 3.5ft 4s 4s 22 25 mph 1023.8mb 52f 48f
6:50am 2.5ft 3s 4s 20 22 mph 1023mb 52f 49f
5:50am 2.5ft 6s 4s 16 20 mph 1021.9mb 52f 51f
4:50am 2.5ft 6s 4s 13 16 mph 1020.9mb 52f 52f
3:50am 2.5ft 6s 4s 16 20 mph 1020mb 53f 53f
2:50am 2.5ft 6s 4s 22 27 mph 1019.3mb 53f 55f
1:50am 2.5ft 6s 4s 13 16 mph 1019.1mb 53f 55f
12:50am 2.5ft 5s 4s 11 13 mph 1018.5mb 53f 55f
Fri 02/12 11:50pm 2.5ft 6s 5s 13 16 mph 1018.4mb 53f 58f
10:50pm 2.5ft 5s 5s 9 11 mph 1018.3mb 53f 57f
9:50pm 3ft 5s 5s 9 11 mph 1018.2mb 53f 59f
8:50pm 2.5ft 6s 4s 9 11 mph 1018.1mb 53f 58f
7:50pm 2.5ft 6s 4s 4
mph
1017.8mb 53f 58f
6:50pm 2.5ft 6s 4s 2 4 mph 1017.6mb 54f 57f
5:50pm 2.5ft 6s 4s 2 4 mph 1017.5mb 54f 58f
4:50pm 2.5ft 6s 5s 4
mph
1017.2mb 54f 60f
3:50pm 2.5ft 6s 5s 2 4 mph 1017.1mb 54f 59f
2:50pm 3ft 5s 5s 4
mph
1017.2mb 53f 57f
1:50pm 3ft 6s 4s 11
mph
1017.6mb 53f 56f
12:50pm 3.5ft 5s 4s 16 18 mph 1018.5mb 53f 56f
11:50am 3.5ft 6s 4s 16 18 mph 1019.9mb 52f 55f
10:50am 3.5ft 5s 4s 16 18 mph 1020.9mb 52f 54f
9:50am 3.5ft 5s 4s 18 20 mph 1021mb 52f 55f
8:50am 3.5ft 5s 4s 18 20 mph 1021.2mb 52f 54f
7:50am 3ft 5s 4s 16 18 mph 1021.4mb 52f 54f
6:50am 3ft 5s 4s 16 18 mph 1021.8mb 52f 54f
5:50am 2.5ft 6s 4s 16 18 mph 1021.8mb 52f 54f
4:50am 2.5ft 6s 4s 16 18 mph 1021.7mb 52f 53f
3:50am 3ft 6s 4s 13
mph
1021.9mb 52f 54f
2:50am 3ft 6s 4s 16 18 mph 1022.1mb 52f 54f
1:50am 3ft 5s 4s 18 22 mph 1022.2mb 53f 55f
12:50am 2.5ft 5s 4s 16 20 mph 1022.4mb 53f 55f
Thu 02/11 11:50pm 3ft 5s 4s 13 16 mph 1022.8mb 53f 55f
10:50pm 3.5ft 5s 4s 11 13 mph 1022.7mb 53f 55f
9:50pm 3.5ft 5s 4s 16 18 mph 1022.7mb 53f 55f
8:50pm 2.5ft 4s 4s 16 20 mph 1022.3mb 53f 56f
7:50pm 2.5ft 4s 4s 13 18 mph 1022.2mb 53f 56f
6:50pm 2.5ft 4s 4s 13 16 mph 1021.8mb 53f 55f
5:50pm 2.5ft 4s 3s 16 18 mph 1021.6mb 53f 55f
4:50pm 1.6ft 3s 3s 18 20 mph 1021.2mb 53f 54f
3:50pm 1ft 14s 3s 18 20 mph 1021.3mb 53f 53f
2:50pm 0.7ft  -  4s 11 13 mph 1022.1mb 53f 51f
1:50pm 0.7ft  -  5s 9
mph
1022.9mb 53f 50f
12:50pm 0.7ft  -  4s 7 9 mph 1024mb 53f 49f
11:50am 1ft 15s 3s 4 7 mph 1025.2mb 53f 47f
10:50am 1.3ft 15s 3s 4 7 mph 1026.1mb 53f 47f
9:50am 1.3ft 3s 3s 4 7 mph 1026.2mb 52f 46f
8:50am 1.6ft 3s 3s 9 11 mph 1026.2mb 52f 45f
7:50am 1.6ft 4s 3s 11 16 mph 1025.9mb 52f 44f
6:50am 2ft 4s 4s 16 18 mph 1025.5mb 52f 44f
5:50am 2ft 4s 3s 16 20 mph 1024.9mb 52f 44f
4:50am 2.5ft 4s 4s 18 20 mph 1024.4mb 52f 44f
3:50am 2.5ft 3s 3s 18 22 mph 1024mb 52f 44f
2:50am 2.5ft 3s 3s 22 25 mph 1023.4mb 52f 44f
1:50am 2.5ft 3s 3s 22 25 mph 1023.2mb 52f 44f
12:50am 3ft 3s 3s 22 29 mph 1022.6mb 53f 46f
Wed 02/10 11:50pm 3ft 4s 3s 22 27 mph 1022.3mb 53f 46f
10:50pm 3ft 4s 3s 20 25 mph 1022.2mb 53f 45f
9:50pm 3.5ft 4s 4s 22 27 mph 1022.4mb 53f 45f
8:50pm 3.5ft 5s 4s 25 31 mph 1022.2mb 53f 45f
7:50pm 3.5ft 5s 4s 22 27 mph 1022.2mb 53f 44f
6:50pm 4ft 5s 4s 25 31 mph 1021.5mb 53f 44f
5:50pm 3.5ft 4s 4s 25 31 mph 1020.3mb 53f 45f
4:50pm 4ft 5s 4s 25 31 mph 1019.7mb 53f 45f
3:50pm 3.5ft 4s 4s 25 31 mph 1018.8mb 53f 44f
2:50pm 3.5ft 4s 4s 22 27 mph 1018.7mb 53f 43f
1:50pm 3.5ft 4s 4s 20 29 mph 1018.6mb 53f 42f
12:50pm 4ft 4s 4s 25 29 mph 1019.1mb 54f 40f
11:50am 4.5ft 4s 4s 22 29 mph 1019.9mb 54f 38f
10:50am 4.5ft 5s 4s 25 31 mph 1019.8mb 54f 38f
9:50am 5ft 5s 4s 27 34 mph 1019.5mb 54f 37f
8:50am 4.5ft 5s 4s 27 31 mph 1019.5mb 54f 37f
7:50am 3.5ft 5s 4s 27 29 mph 1019.1mb 54f 38f
6:50am 3.5ft 5s 4s 27 34 mph 1018.6mb 54f 38f
5:50am 3ft 4s 4s 25 31 mph 1018mb 54f 40f
4:50am 3.5ft 4s 4s 22 27 mph 1017.7mb 54f 40f
3:50am 3ft 4s 4s 20 27 mph 1017.2mb 54f 41f
2:50am 3ft 4s 3s 22 29 mph 1017.7mb 54f 41f
1:50am 3.5ft 4s 4s 22 29 mph 1017.7mb 54f 42f
12:50am 3.5ft 4s 4s 22 27 mph 1017.5mb 54f 42f
Tue 02/09 11:50pm 4ft 4s 4s 22 29 mph 1017.1mb 54f 43f
10:50pm 5ft 5s 4s 25 31 mph 1016.3mb 55f 45f
9:50pm 4ft 4s 4s 31 40 mph 1014.8mb 55f 46f
8:50pm 3.5ft 4s 4s 25 34 mph 1013.7mb 55f 48f
7:50pm 4ft 5s 4s 22 29 mph 1012.9mb 55f 49f
6:50pm 4.5ft 5s 4s 20 25 mph 1012.2mb 55f 50f
5:50pm 4.5ft 5s 4s 22 29 mph 1011.4mb 55f 50f
4:50pm 5ft 5s 4s 25 31 mph 1010.8mb 55f 50f
3:50pm 5ft 5s 4s 27 34 mph 1010.4mb 55f 49f